Flight Track Log - Related Links

Times and Time Zones

All times are in EDT time to prevent confusion due to time zone crossing. See the UAL3841 flight status page for this flight to view local times or setup timezone preferences in your user account.


Time Position Orientation Groundspeed Altitude Reporting Facility
EDT Latitude Longitude Course Direction KTS MPH feet Rate Location/Type
Fri 05:43:01 PM 41.9333 -87.9167 253° West 139 160 2,700  Level Chicago TRACON
Fri 05:43:56 PM 41.9167 -87.9667 246° West 207 238 3,800 1,565 Climbing Chicago TRACON
Fri 05:44:56 PM 41.9167 -88.0500 270° West 241 277 5,700 1,841 Climbing Chicago TRACON
Fri 05:45:00 PM 41.8841 -88.3126 255° West  Level FlightAware Approximate
Fri 05:46:00 PM 41.8412 -88.4442 255° West  Level FlightAware Approximate
Fri 05:46:52 PM 41.9014 -88.2153 263° West 247 284 9,200  Level Chicago Center
Fri 05:47:00 PM 41.8114 -88.5829 254° West  Level FlightAware Approximate
Fri 05:47:54 PM 41.8936 -88.3092 264° West 253 291 10,900  Level Chicago Center
Fri 05:48:00 PM 41.7807 -88.7213 253° West  Level FlightAware Approximate
Fri 05:48:56 PM 41.8644 -88.4375 253° West 305 351 12,100  Level Chicago Center
Fri 05:49:58 PM 41.8394 -88.5497 253° West 317 365 13,700 1,355 Climbing Chicago Center
Fri 05:51:00 PM 41.8117 -88.6642 252° West 325 374 14,900 1,210 Climbing Chicago Center
Fri 05:52:02 PM 41.7825 -88.7833 252° West 338 389 16,200 1,344 Climbing Chicago Center
Fri 05:53:05 PM 41.7467 -88.9314 252° West 349 402 17,700 1,296 Climbing Chicago Center
Fri 05:54:07 PM 41.7167 -89.0556 252° West 355 409 18,900 1,161 Climbing Chicago Center
Fri 05:55:09 PM 41.6856 -89.1811 252° West 358 412 20,100 1,210 Climbing Chicago Center
Fri 05:56:11 PM 41.6550 -89.3108 253° West 367 422 21,400 1,355 Climbing Chicago Center
Fri 05:57:13 PM 41.6172 -89.4656 252° West 368 423 22,900 1,210 Climbing Chicago Center
Fri 05:58:15 PM 41.5892 -89.5819 252° West 369 425 23,900 532 Climbing Chicago Center
Fri 05:59:17 PM 41.5558 -89.7144 251° West 377 434 24,000 48 Climbing Chicago Center
Fri 06:00:19 PM 41.5128 -89.8858 252° West 405 466 24,000  Level Chicago Center
Fri 06:01:21 PM 41.4744 -90.0314 251° West 416 479 24,000  Level Chicago Center
Fri 06:02:24 PM 41.3717 -90.1167 212° Southwest 443 510 24,000  Level Chicago Center
Fri 06:03:26 PM 41.2633 -90.1906 207° Southwest 440 506 24,000  Level Chicago Center
Fri 06:04:28 PM 41.1536 -90.2678 208° Southwest 447 514 24,000  Level Chicago Center
Fri 06:05:30 PM 41.0317 -90.3108 195° South 458 527 24,000  Level Chicago Center
Fri 06:06:32 PM 40.8825 -90.3225 183° South 452 520 24,000  Level Chicago Center
Fri 06:07:34 PM 40.7617 -90.3322 183° South 444 511 24,000  Level Chicago Center
Fri 06:08:36 PM 40.6386 -90.3428 184° South 445 512 24,000  Level Chicago Center
Fri 06:09:38 PM 40.5142 -90.3528 183° South 452 520 24,000  Level Chicago Center
Fri 06:10:41 PM 40.3672 -90.3658 184° South 446 513 24,000  Level Chicago Center
Fri 06:11:30 PM 40.2700 -90.3717 183° South 442 509 24,000  Level Kansas City Center
Fri 06:12:32 PM 40.1478 -90.3575 175° South 444 511 24,000  Level Kansas City Center
Fri 06:13:34 PM 40.0356 -90.2786 152° Southeast 458 527 24,000  Level Kansas City Center
Fri 06:14:36 PM 39.9222 -90.1983 151° Southeast 463 533 24,000  Level Kansas City Center
Fri 06:15:38 PM 39.8094 -90.1178 151° Southeast 463 533 24,000  Level Kansas City Center
Fri 06:16:40 PM 39.6797 -90.0267 152° Southeast 462 532 24,000  Level Kansas City Center
Fri 06:17:42 PM 39.5658 -89.9467 152° Southeast 463 533 24,000  Level Kansas City Center
Fri 06:18:44 PM 39.4511 -89.8661 152° Southeast 466 536 24,000  Level Kansas City Center
Fri 06:19:46 PM 39.3372 -89.7878 152° Southeast 463 533 24,000  Level Kansas City Center
Fri 06:20:48 PM 39.2244 -89.7083 151° Southeast 462 532 24,000  Level Kansas City Center
Fri 06:21:50 PM 39.0925 -89.6178 152° Southeast 448 516 24,000  Level Kansas City Center
Fri 06:22:52 PM 38.9819 -89.5417 152° Southeast 449 517 24,000  Level Kansas City Center
Fri 06:23:54 PM 38.8625 -89.4589 152° Southeast 451 519 24,000  Level Kansas City Center
Fri 06:24:56 PM 38.7514 -89.3833 152° Southeast 451 519 24,000  Level Kansas City Center
Fri 06:25:58 PM 38.6542 -89.2672 137° Southeast 448 516 24,000 -145 Level Kansas City Center
Fri 06:27:00 PM 38.6133 -89.1181 109° East 444 511 23,700 -484 Descending Kansas City Center
Fri 06:28:02 PM 38.5747 -88.9653 108° East 448 516 23,000 -339 Descending Kansas City Center
Fri 06:29:04 PM 38.5322 -88.8008 108° East 452 520 23,000  Level Kansas City Center
Fri 06:30:06 PM 38.4933 -88.6533 109° East 451 519 23,000  Level Kansas City Center
Fri 06:31:08 PM 38.4508 -88.4869 108° East 449 517 23,000  Level Kansas City Center
Fri 06:32:10 PM 38.4094 -88.3372 109° East 447 514 23,000  Level Kansas City Center
Fri 06:33:12 PM 38.3731 -88.1836 107° East 450 518 23,000  Level Kansas City Center
Fri 06:34:15 PM 38.3664 -88.0250 93° East 445 512 23,000  Level Kansas City Center
Fri 06:35:17 PM 38.3583 -87.8647 94° East 450 518 23,000  Level Kansas City Center
Fri 06:36:19 PM 38.3506 -87.7061 94° East 448 516 23,000  Level Kansas City Center
Fri 06:37:21 PM 38.3425 -87.5492 94° East 443 510 23,000 -132 Level Kansas City Center
Fri 06:38:35 PM 38.3308 -87.3303 94° East 445 512 22,700 -971 Descending Indianapolis Center
Fri 06:39:37 PM 38.3144 -87.1778 98° East 435 501 20,800 -1,872 Descending Indianapolis Center
Fri 06:40:40 PM 38.2967 -87.0386 99° East 428 493 18,800 -2,256 Descending Indianapolis Center
Fri 06:41:42 PM 38.2758 -86.8706 99° East 414 476 16,100 -2,371 Descending Indianapolis Center
Fri 06:42:44 PM 38.2589 -86.7394 99° East 381 438 13,900 -2,226 Descending Indianapolis Center
Fri 06:43:46 PM 38.2431 -86.6072 99° East 378 435 11,500 -1,790 Descending Indianapolis Center
Fri 06:44:48 PM 38.2644 -86.4817 78° East 371 427 10,200 -726 Descending Indianapolis Center
Fri 06:45:50 PM 38.2806 -86.3581 81° East 355 409 10,000 -97 Descending Indianapolis Center
Fri 06:46:52 PM 38.3028 -86.2344 77° East 359 413 10,000 -339 Level Indianapolis Center
Fri 06:47:54 PM 38.3200 -86.1364 77° East 286 329 9,300 -1,597 Descending Indianapolis Center
Fri 06:48:56 PM 38.3394 -86.0256 77° East 268 308 6,700 -2,323 Descending Indianapolis Center
Fri 06:49:58 PM 38.3428 -85.9328 87° East 278 320 4,500 -1,984 Descending Indianapolis Center
Fri 06:51:00 PM 38.3178 -85.8469 110° East 265 305 2,600 -1,839 Descending Indianapolis Center

Login

Don't have an account? Register now (free) for customized features, flight alerts, and more!